createdAt,value
2022-12-03T00:02:13.958Z,8.83
2022-12-03T00:05:20.473Z,20.55
2022-12-03T00:08:26.333Z,14.18
2022-12-03T00:11:25.560Z,16.70
2022-12-03T00:14:31.844Z,23.20
2022-12-03T00:17:38.223Z,28.80
2022-12-03T00:20:44.752Z,11.28
2022-12-03T00:23:50.624Z,16.02
2022-12-03T00:26:55.706Z,14.47
2022-12-03T00:30:01.524Z,19.30
2022-12-03T00:33:06.793Z,13.43
2022-12-03T00:36:12.142Z,14.00
2022-12-03T00:39:18.012Z,13.83
2022-12-03T00:42:17.193Z,15.35
2022-12-03T00:45:23.497Z,21.23
2022-12-03T00:48:28.354Z,18.85
2022-12-03T00:51:35.142Z,13.58
2022-12-03T00:54:40.624Z,15.10
2022-12-03T00:57:46.322Z,24.00
2022-12-03T01:00:52.497Z,18.60
2022-12-03T01:03:57.851Z,18.98
2022-12-03T01:07:02.394Z,21.70
2022-12-03T01:10:08.179Z,18.20
2022-12-03T01:13:14.056Z,18.17
2022-12-03T01:16:20.609Z,24.47
2022-12-03T01:19:26.836Z,16.37
2022-12-03T01:22:32.196Z,21.65
2022-12-03T01:25:37.625Z,24.32
2022-12-03T01:28:43.396Z,18.27
2022-12-03T01:32:07.080Z,21.07
2022-12-03T01:35:13.029Z,24.57
2022-12-03T01:38:18.521Z,19.62
2022-12-03T01:41:25.107Z,16.75
2022-12-03T01:44:28.393Z,17.95
2022-12-03T01:47:34.919Z,26.75
2022-12-03T01:50:47.719Z,19.30
2022-12-03T01:53:53.951Z,20.10
2022-12-03T01:56:52.845Z,17.55
2022-12-03T01:59:54.140Z,17.40
2022-12-03T02:03:00.806Z,17.32
2022-12-03T02:06:06.684Z,21.02
2022-12-03T02:09:07.401Z,20.27
2022-12-03T02:12:12.448Z,20.85
2022-12-03T02:15:17.954Z,24.60
2022-12-03T02:18:24.410Z,21.77
2022-12-03T02:21:46.829Z,25.32
2022-12-03T02:25:16.563Z,17.60
2022-12-03T02:28:23.642Z,25.50
2022-12-03T02:31:30.109Z,24.92
2022-12-03T02:34:58.133Z,39.88
2022-12-03T02:38:07.334Z,24.52
2022-12-03T02:41:17.136Z,17.73
2022-12-03T02:44:21.928Z,29.32
2022-12-03T02:47:26.661Z,23.98
2022-12-03T02:50:37.159Z,27.67
2022-12-03T02:53:51.158Z,24.82
2022-12-03T02:56:56.698Z,24.35
2022-12-03T03:00:02.387Z,25.97
2022-12-03T03:03:08.110Z,25.35
2022-12-03T03:06:13.043Z,24.67
2022-12-03T03:09:18.200Z,22.95
2022-12-03T03:12:23.390Z,24.10
2022-12-03T03:15:28.238Z,29.37
2022-12-03T03:18:26.256Z,25.90
2022-12-03T03:21:18.829Z,28.20
2022-12-03T03:24:24.322Z,19.42
2022-12-03T03:27:30.039Z,30.23
2022-12-03T03:30:35.281Z,21.87
2022-12-03T03:33:41.279Z,24.47
2022-12-03T03:36:46.396Z,26.45
2022-12-03T03:39:53.051Z,29.15
2022-12-03T03:42:59.320Z,24.35
2022-12-03T03:46:05.274Z,25.17
2022-12-03T03:49:11.076Z,24.47
2022-12-03T03:52:18.639Z,29.37
2022-12-03T03:55:25.418Z,30.57
2022-12-03T03:58:31.062Z,24.80
2022-12-03T04:01:37.483Z,22.35
2022-12-03T04:04:42.654Z,23.67
2022-12-03T04:07:48.368Z,27.65
2022-12-03T04:11:12.392Z,23.75
2022-12-03T04:14:17.477Z,29.23
2022-12-03T04:17:22.867Z,27.65
2022-12-03T04:20:28.975Z,24.55
2022-12-03T04:23:34.023Z,24.70
2022-12-03T04:26:56.930Z,23.77
2022-12-03T04:30:02.322Z,23.07
2022-12-03T04:33:19.192Z,24.00
2022-12-03T04:36:24.792Z,23.45
2022-12-03T04:39:32.268Z,23.67
2022-12-03T04:42:37.597Z,27.13
2022-12-03T04:45:36.117Z,31.00
2022-12-03T04:48:40.857Z,27.35
2022-12-03T04:51:47.179Z,25.30
2022-12-03T04:54:53.528Z,29.85
2022-12-03T04:57:59.221Z,22.93
2022-12-03T05:01:05.035Z,26.25
2022-12-03T05:04:11.020Z,29.48
2022-12-03T05:07:15.883Z,24.40
2022-12-03T05:10:22.121Z,27.50
2022-12-03T05:13:28.485Z,27.70
2022-12-03T05:16:34.169Z,23.05
2022-12-03T05:19:58.474Z,24.37
2022-12-03T05:23:05.103Z,29.30
2022-12-03T05:26:10.749Z,34.50
2022-12-03T05:29:16.370Z,26.12
2022-12-03T05:32:22.325Z,26.48
2022-12-03T05:35:28.414Z,24.35
2022-12-03T05:38:34.670Z,20.77
2022-12-03T05:41:58.220Z,22.93
2022-12-03T05:45:03.885Z,22.50
2022-12-03T05:48:09.870Z,22.30
2022-12-03T05:51:16.048Z,27.62
2022-12-03T05:54:21.734Z,22.35
2022-12-03T05:57:27.461Z,21.57
2022-12-03T06:00:43.539Z,23.40
2022-12-03T06:03:49.002Z,18.30
2022-12-03T06:06:55.293Z,20.90
2022-12-03T06:10:00.664Z,18.45
2022-12-03T06:13:01.136Z,22.62
2022-12-03T06:16:07.136Z,20.25
2022-12-03T06:19:12.985Z,23.00
2022-12-03T06:22:18.578Z,23.83
2022-12-03T06:25:24.407Z,18.32
2022-12-03T06:28:29.740Z,21.73
2022-12-03T06:31:35.470Z,20.88
2022-12-03T06:34:40.605Z,16.77
2022-12-03T06:37:46.269Z,18.00
2022-12-03T06:40:52.784Z,22.15
2022-12-03T06:43:58.438Z,18.35
2022-12-03T06:47:03.849Z,18.50
2022-12-03T06:50:08.899Z,21.33
2022-12-03T06:53:14.605Z,18.60
2022-12-03T06:56:22.363Z,15.23
2022-12-03T06:59:26.290Z,20.43
2022-12-03T07:02:32.279Z,18.07
2022-12-03T07:05:38.109Z,14.75
2022-12-03T07:08:44.241Z,12.30
2022-12-03T07:11:49.396Z,17.62
2022-12-03T07:14:56.207Z,19.27
2022-12-03T07:18:02.859Z,20.17
2022-12-03T07:21:08.267Z,13.35
2022-12-03T07:24:13.585Z,12.60
2022-12-03T07:27:13.108Z,17.75
2022-12-03T07:30:06.210Z,15.13
2022-12-03T07:33:15.487Z,17.67
2022-12-03T07:36:25.043Z,11.40
2022-12-03T07:39:30.297Z,13.72
2022-12-03T07:42:36.838Z,13.35
2022-12-03T07:45:42.511Z,14.63
2022-12-03T07:48:47.495Z,13.38
2022-12-03T07:51:55.186Z,19.70
2022-12-03T07:55:01.257Z,12.70
2022-12-03T07:58:07.015Z,10.63
2022-12-03T08:01:12.239Z,14.73
2022-12-03T08:04:19.926Z,9.45
2022-12-03T08:07:25.776Z,15.98
2022-12-03T08:10:31.652Z,10.05
2022-12-03T08:13:37.986Z,13.25
2022-12-03T08:16:44.811Z,8.98
2022-12-03T08:19:51.514Z,13.75
2022-12-03T08:22:59.093Z,10.20
2022-12-03T08:26:07.401Z,11.20
2022-12-03T08:29:12.695Z,8.78
2022-12-03T08:32:20.451Z,10.05
2022-12-03T08:35:40.420Z,12.70
2022-12-03T08:38:51.341Z,10.53
2022-12-03T08:42:16.943Z,8.35
2022-12-03T08:49:12.520Z,9.03
2022-12-03T08:52:28.057Z,18.25
2022-12-03T08:55:49.457Z,9.30
2022-12-03T08:59:41.431Z,7.12
2022-12-03T09:05:56.846Z,6.37
2022-12-03T09:09:06.707Z,6.42
2022-12-03T09:12:10.553Z,9.98
2022-12-03T09:15:15.796Z,7.22
2022-12-03T09:18:24.824Z,9.65
2022-12-03T09:21:31.841Z,8.00
2022-12-03T09:24:38.038Z,7.45
2022-12-03T09:27:43.540Z,16.60
2022-12-03T09:30:49.453Z,11.95
2022-12-03T09:33:55.025Z,8.80
2022-12-03T09:37:00.855Z,12.13
2022-12-03T09:40:05.637Z,13.75
2022-12-03T09:43:11.199Z,7.22
2022-12-03T09:46:16.838Z,12.40
2022-12-03T09:49:22.212Z,9.90
2022-12-03T09:52:33.380Z,13.93
2022-12-03T09:55:40.970Z,11.40
2022-12-03T09:58:46.731Z,6.17
2022-12-03T10:01:52.141Z,8.13
2022-12-03T10:04:58.992Z,7.08
2022-12-03T10:08:05.454Z,9.03
2022-12-03T10:11:11.305Z,10.28
2022-12-03T10:14:16.124Z,7.80
2022-12-03T10:17:22.225Z,9.20
2022-12-03T10:20:31.031Z,5.78
2022-12-03T10:23:40.606Z,9.95
2022-12-03T10:30:34.029Z,16.42
2022-12-03T10:36:48.641Z,8.30
2022-12-03T10:40:16.123Z,6.55
2022-12-03T10:43:40.415Z,6.80
2022-12-03T10:46:46.517Z,7.25
2022-12-03T10:49:52.637Z,8.78
2022-12-03T10:52:57.646Z,9.80
2022-12-03T10:56:06.620Z,6.97
2022-12-03T10:59:12.734Z,11.65
2022-12-03T11:02:19.703Z,10.38
2022-12-03T11:05:33.090Z,8.50
2022-12-03T11:08:41.803Z,6.37
2022-12-03T11:11:53.549Z,5.55
2022-12-03T11:15:14.890Z,5.50
2022-12-03T11:18:22.825Z,10.75
2022-12-03T11:25:45.091Z,6.25
2022-12-03T11:28:51.840Z,8.30
2022-12-03T11:32:01.247Z,7.65
2022-12-03T11:35:07.111Z,8.25
2022-12-03T11:38:27.829Z,9.53
2022-12-03T11:41:49.387Z,7.90
2022-12-03T11:48:30.882Z,5.72
2022-12-03T11:51:38.009Z,6.37
2022-12-03T11:55:07.321Z,7.72
2022-12-03T11:58:41.260Z,12.55
2022-12-03T12:01:52.093Z,5.72
2022-12-03T12:04:57.882Z,8.83
2022-12-03T12:08:03.302Z,8.75
2022-12-03T12:11:09.378Z,9.30
2022-12-03T12:14:20.964Z,3.90
2022-12-03T12:17:45.092Z,8.98
2022-12-03T12:20:52.199Z,7.15
2022-12-03T12:23:57.642Z,7.55
2022-12-03T12:31:28.267Z,11.35
2022-12-03T12:34:35.924Z,11.28
2022-12-03T12:38:00.222Z,23.77
2022-12-03T12:41:11.777Z,16.32
2022-12-03T12:44:17.230Z,9.65
2022-12-03T12:47:24.954Z,12.15
2022-12-03T12:50:32.930Z,10.78
2022-12-03T12:53:50.937Z,13.83
2022-12-03T12:57:02.096Z,12.37
2022-12-03T13:00:07.783Z,15.43
2022-12-03T13:03:17.704Z,14.03
2022-12-03T13:06:28.465Z,12.80
2022-12-03T13:09:40.354Z,12.58
2022-12-03T13:12:45.793Z,16.05
2022-12-03T13:16:11.493Z,11.63
2022-12-03T13:19:27.885Z,16.10
2022-12-03T13:22:48.731Z,15.93
2022-12-03T13:26:12.954Z,16.30
2022-12-03T13:29:21.691Z,12.58
2022-12-03T13:32:34.289Z,15.03
2022-12-03T13:36:05.465Z,14.10
2022-12-03T13:39:11.769Z,14.93
2022-12-03T13:42:52.830Z,13.30
2022-12-03T13:46:03.058Z,17.77
2022-12-03T13:49:08.487Z,17.20
2022-12-03T13:52:14.746Z,15.98
2022-12-03T13:55:21.356Z,15.08
2022-12-03T13:58:26.335Z,17.05
2022-12-03T14:01:32.521Z,20.72
2022-12-03T14:05:00.725Z,14.60
2022-12-03T14:08:08.128Z,17.42
2022-12-03T14:11:13.798Z,17.48
2022-12-03T14:14:19.155Z,18.92
2022-12-03T14:17:37.878Z,16.57
2022-12-03T14:21:05.163Z,17.32
2022-12-03T14:24:10.331Z,18.62
2022-12-03T14:27:18.166Z,20.60
2022-12-03T14:30:24.390Z,14.00
2022-12-03T14:33:35.061Z,26.07
2022-12-03T14:36:41.257Z,17.02
2022-12-03T14:39:56.729Z,13.93
2022-12-03T14:43:08.009Z,16.87
2022-12-03T14:46:31.912Z,20.43
2022-12-03T14:49:36.636Z,20.80
2022-12-03T14:52:51.421Z,17.77
2022-12-03T14:56:06.899Z,15.38
2022-12-03T14:59:13.970Z,17.35
2022-12-03T15:02:39.631Z,21.68
2022-12-03T15:06:01.475Z,11.22
2022-12-03T15:09:07.359Z,15.03
2022-12-03T15:12:19.040Z,17.30
2022-12-03T15:15:26.907Z,15.50
2022-12-03T15:18:37.978Z,19.80
2022-12-03T15:22:01.110Z,15.88
2022-12-03T15:25:08.989Z,11.85
2022-12-03T15:28:15.892Z,13.00
2022-12-03T15:31:21.862Z,14.30
2022-12-03T15:34:51.956Z,15.90
2022-12-03T15:41:31.193Z,21.25
2022-12-03T15:44:38.063Z,22.80
2022-12-03T15:47:43.123Z,17.62
2022-12-03T15:50:48.473Z,14.83
2022-12-03T15:53:55.704Z,23.15
2022-12-03T16:00:31.898Z,14.78
2022-12-03T16:04:05.294Z,16.55
2022-12-03T16:07:12.186Z,19.05
2022-12-03T16:10:18.989Z,15.72
2022-12-03T16:13:46.971Z,16.48
2022-12-03T16:20:47.775Z,17.67
2022-12-03T16:24:04.545Z,23.85
2022-12-03T16:27:19.563Z,12.98
2022-12-03T16:33:59.508Z,12.33
2022-12-03T16:37:11.436Z,18.62
2022-12-03T16:40:33.619Z,18.48
2022-12-03T16:43:48.399Z,17.85
2022-12-03T16:51:07.439Z,15.05
2022-12-03T16:54:13.626Z,22.98
2022-12-03T16:57:20.724Z,14.58
2022-12-03T17:00:28.156Z,16.70
2022-12-03T17:03:34.243Z,17.75
2022-12-03T17:06:40.142Z,18.65
2022-12-03T17:09:47.834Z,19.67
2022-12-03T17:13:09.257Z,19.23
2022-12-03T17:16:01.984Z,23.25
2022-12-03T17:19:08.135Z,15.98
2022-12-03T17:22:14.299Z,19.02
2022-12-03T17:25:20.263Z,26.05
2022-12-03T17:28:24.786Z,17.10
2022-12-03T17:31:24.346Z,27.05
2022-12-03T17:34:29.706Z,15.50
2022-12-03T17:37:35.486Z,21.23
2022-12-03T17:40:41.657Z,18.52
2022-12-03T17:43:47.648Z,22.60
2022-12-03T17:46:53.128Z,18.92
2022-12-03T17:49:52.892Z,21.52
2022-12-03T17:52:45.462Z,16.73
2022-12-03T17:55:53.652Z,22.00
2022-12-03T17:58:52.331Z,20.57
2022-12-03T18:01:59.928Z,27.40
2022-12-03T18:05:05.752Z,21.45
2022-12-03T18:08:12.175Z,22.55
2022-12-03T18:11:16.919Z,27.55
2022-12-03T18:14:22.954Z,19.85
2022-12-03T18:17:28.056Z,25.92
2022-12-03T18:20:33.114Z,31.48
2022-12-03T18:23:38.224Z,25.60
2022-12-03T18:26:44.120Z,25.23
2022-12-03T18:29:49.812Z,24.12
2022-12-03T18:32:56.122Z,24.10
2022-12-03T18:36:01.078Z,30.90
2022-12-03T18:39:08.178Z,28.98
2022-12-03T18:42:13.595Z,24.43
2022-12-03T18:45:21.631Z,18.02
2022-12-03T18:48:30.099Z,20.05
2022-12-03T18:51:37.566Z,21.70
2022-12-03T18:54:43.357Z,22.20
2022-12-03T18:57:48.304Z,22.90
2022-12-03T19:00:53.311Z,25.45
2022-12-03T19:03:58.583Z,31.45
2022-12-03T19:07:04.316Z,30.10
2022-12-03T19:10:09.950Z,25.30
2022-12-03T19:13:16.677Z,26.55
2022-12-03T19:16:24.359Z,23.83
2022-12-03T19:19:32.930Z,23.70
2022-12-03T19:22:38.211Z,18.57
2022-12-03T19:25:43.904Z,16.17
2022-12-03T19:28:50.507Z,29.12
2022-12-03T19:31:56.826Z,24.20
2022-12-03T19:35:03.715Z,16.60
2022-12-03T19:38:10.104Z,23.73
2022-12-03T19:41:21.142Z,18.73
2022-12-03T19:44:28.934Z,19.20
2022-12-03T19:47:33.709Z,13.78
2022-12-03T19:50:39.304Z,23.92
2022-12-03T19:53:46.471Z,21.87
2022-12-03T19:56:53.513Z,20.05
2022-12-03T19:59:52.888Z,22.35
2022-12-03T20:02:59.600Z,23.10
2022-12-03T20:06:05.464Z,13.45
2022-12-03T20:09:17.687Z,21.77
2022-12-03T20:12:23.176Z,20.02
2022-12-03T20:15:28.919Z,21.02
2022-12-03T20:18:34.558Z,19.48
2022-12-03T20:21:40.311Z,18.37
2022-12-03T20:24:45.766Z,22.48
2022-12-03T20:27:50.869Z,22.90
2022-12-03T20:30:55.636Z,21.95
2022-12-03T20:34:04.552Z,24.32
2022-12-03T20:37:10.124Z,25.57
2022-12-03T20:40:16.140Z,25.72
2022-12-03T20:43:22.172Z,22.13
2022-12-03T20:46:38.214Z,17.02
2022-12-03T20:49:45.917Z,14.35
2022-12-03T20:53:16.319Z,20.60
2022-12-03T20:55:59.023Z,18.65
2022-12-03T20:59:04.762Z,20.72
2022-12-03T21:02:11.791Z,19.48
2022-12-03T21:05:17.031Z,18.00
2022-12-03T21:08:27.913Z,16.20
2022-12-03T21:11:28.567Z,19.75
2022-12-03T21:14:34.480Z,23.92
2022-12-03T21:17:39.957Z,21.85
2022-12-03T21:20:45.996Z,17.37
2022-12-03T21:23:50.848Z,16.97
2022-12-03T21:26:57.237Z,21.23
2022-12-03T21:30:02.830Z,18.25
2022-12-03T21:33:08.559Z,21.23
2022-12-03T21:36:14.728Z,31.00
2022-12-03T21:39:20.466Z,19.25
2022-12-03T21:42:35.918Z,17.15
2022-12-03T21:45:33.293Z,21.07
2022-12-03T21:48:39.040Z,16.30
2022-12-03T21:51:45.449Z,23.30
2022-12-03T21:54:51.644Z,22.25
2022-12-03T21:57:56.881Z,17.90
2022-12-03T22:01:03.320Z,20.12
2022-12-03T22:04:03.189Z,21.40
2022-12-03T22:10:15.623Z,18.95
2022-12-03T22:13:22.217Z,21.48
2022-12-03T22:16:32.321Z,19.02
2022-12-03T22:22:43.186Z,18.48
2022-12-03T22:25:48.729Z,18.02
